createdAt,value
2022-11-07T00:00:00.244Z,6.01
2022-11-07T00:02:51.840Z,6.06
2022-11-07T00:05:19.563Z,6.21
2022-11-07T00:07:46.970Z,6.27
2022-11-07T00:10:14.354Z,6.20
2022-11-07T00:12:41.833Z,6.28
2022-11-07T00:15:09.581Z,6.30
2022-11-07T00:17:37.167Z,6.29
2022-11-07T00:20:05.017Z,6.29
2022-11-07T00:22:32.331Z,6.21
2022-11-07T00:24:59.648Z,6.11
2022-11-07T00:27:27.106Z,6.24
2022-11-07T00:29:54.554Z,6.19
2022-11-07T00:32:22.252Z,6.28
2022-11-07T00:34:49.566Z,6.19
2022-11-07T00:37:16.932Z,6.22
2022-11-07T00:39:44.325Z,6.18
2022-11-07T00:42:11.681Z,6.24
2022-11-07T00:44:39.034Z,6.19
2022-11-07T00:47:06.761Z,6.07
2022-11-07T00:49:34.203Z,5.99
2022-11-07T00:52:01.603Z,6.00
2022-11-07T00:54:28.958Z,5.95
2022-11-07T00:56:56.585Z,5.96
2022-11-07T00:59:24.159Z,5.92
2022-11-07T01:01:51.788Z,6.04
2022-11-07T01:04:38.045Z,5.99
2022-11-07T01:07:07.008Z,5.94
2022-11-07T01:09:35.086Z,5.92
2022-11-07T01:12:02.638Z,5.94
2022-11-07T01:14:30.944Z,5.92
2022-11-07T01:16:58.471Z,5.91
2022-11-07T01:19:26.024Z,5.98
2022-11-07T01:21:53.824Z,5.99
2022-11-07T01:24:21.366Z,5.90
2022-11-07T01:26:49.483Z,5.89
2022-11-07T01:29:18.201Z,5.92
2022-11-07T01:31:46.534Z,5.85
2022-11-07T01:34:13.939Z,5.85
2022-11-07T01:36:41.417Z,5.79
2022-11-07T01:39:09.039Z,5.85
2022-11-07T01:41:38.321Z,5.86
2022-11-07T01:44:09.148Z,5.86
2022-11-07T01:46:38.716Z,5.80
2022-11-07T01:49:13.132Z,5.80
2022-11-07T01:51:46.528Z,5.91
2022-11-07T01:54:17.206Z,5.87
2022-11-07T01:56:46.016Z,5.72
2022-11-07T01:59:19.619Z,5.73
2022-11-07T02:01:49.825Z,5.69
2022-11-07T02:04:19.218Z,5.67
2022-11-07T02:06:54.642Z,5.51
2022-11-07T02:09:22.051Z,5.42
2022-11-07T02:11:49.437Z,5.39
2022-11-07T02:14:18.355Z,5.31
2022-11-07T02:16:47.244Z,5.26
2022-11-07T02:19:37.416Z,5.24
2022-11-07T02:22:07.731Z,5.28
2022-11-07T02:24:37.651Z,5.18
2022-11-07T02:27:10.088Z,5.10
2022-11-07T02:29:39.839Z,5.16
2022-11-07T02:32:10.385Z,5.19
2022-11-07T02:34:38.131Z,5.13
2022-11-07T02:37:25.583Z,5.05
2022-11-07T02:39:53.191Z,4.94
2022-11-07T02:42:20.743Z,4.98
2022-11-07T02:44:48.248Z,4.97
2022-11-07T02:47:16.257Z,4.98
2022-11-07T02:49:43.726Z,5.00
2022-11-07T02:52:11.134Z,5.05
2022-11-07T02:54:38.402Z,5.04
2022-11-07T02:57:05.796Z,4.96
2022-11-07T02:59:33.347Z,4.83
2022-11-07T03:02:00.818Z,4.79
2022-11-07T03:04:28.139Z,4.84
2022-11-07T03:06:55.606Z,4.83
2022-11-07T03:09:23.107Z,4.77
2022-11-07T03:11:50.648Z,4.87
2022-11-07T03:14:18.126Z,4.74
2022-11-07T03:16:45.550Z,4.74
2022-11-07T03:19:12.867Z,4.68
2022-11-07T03:21:40.403Z,4.68
2022-11-07T03:24:07.882Z,4.68
2022-11-07T03:26:35.701Z,4.69
2022-11-07T03:29:03.280Z,4.73
2022-11-07T03:31:30.618Z,4.76
2022-11-07T03:33:59.344Z,4.77
2022-11-07T03:36:26.758Z,4.85
2022-11-07T03:38:55.669Z,4.66
2022-11-07T03:41:23.875Z,4.73
2022-11-07T03:43:52.168Z,4.68
2022-11-07T03:46:28.987Z,4.67
2022-11-07T03:48:59.049Z,4.82
2022-11-07T03:51:27.268Z,4.91
2022-11-07T03:53:54.840Z,5.04
2022-11-07T03:56:22.240Z,5.15
2022-11-07T03:58:49.709Z,5.20
2022-11-07T04:01:17.560Z,5.16
2022-11-07T04:03:46.664Z,5.16
2022-11-07T04:06:14.122Z,5.15
2022-11-07T04:08:41.693Z,5.23
2022-11-07T04:12:02.688Z,5.24
2022-11-07T04:14:48.583Z,5.47
2022-11-07T04:17:20.715Z,5.48
2022-11-07T04:19:50.273Z,5.55
2022-11-07T04:22:18.819Z,5.64
2022-11-07T04:24:46.613Z,5.66
2022-11-07T04:27:33.133Z,5.74
2022-11-07T04:30:19.319Z,5.71
2022-11-07T04:32:49.308Z,5.60
2022-11-07T04:35:17.721Z,5.54
2022-11-07T04:37:45.574Z,5.64
2022-11-07T04:40:13.848Z,5.67
2022-11-07T04:42:41.464Z,5.77
2022-11-07T04:45:09.534Z,5.78
2022-11-07T04:47:40.452Z,5.85
2022-11-07T04:50:11.968Z,5.87
2022-11-07T04:52:39.627Z,5.75
2022-11-07T04:55:10.292Z,5.69
2022-11-07T04:57:37.867Z,5.68
2022-11-07T05:00:05.875Z,5.62
2022-11-07T05:02:33.363Z,5.62
2022-11-07T05:05:00.623Z,5.64
2022-11-07T05:07:27.947Z,5.57
2022-11-07T05:09:55.301Z,5.75
2022-11-07T05:12:22.694Z,5.78
2022-11-07T05:14:50.025Z,5.73
2022-11-07T05:17:18.031Z,5.73
2022-11-07T05:19:45.547Z,5.77
2022-11-07T05:22:31.669Z,5.69
2022-11-07T05:24:59.194Z,5.84
2022-11-07T05:27:26.730Z,5.91
2022-11-07T05:29:54.215Z,5.86
2022-11-07T05:32:21.830Z,5.97
2022-11-07T05:34:49.531Z,5.82
2022-11-07T05:37:17.357Z,5.74
2022-11-07T05:39:44.659Z,5.66
2022-11-07T05:42:44.274Z,5.59
2022-11-07T05:45:11.882Z,5.61
2022-11-07T05:47:39.393Z,5.55
2022-11-07T05:50:07.313Z,5.53
2022-11-07T05:52:35.180Z,5.46
2022-11-07T05:55:02.471Z,5.53
2022-11-07T05:57:57.487Z,5.68
2022-11-07T06:00:25.038Z,5.62
2022-11-07T06:02:57.624Z,5.71
2022-11-07T06:05:25.320Z,5.75
2022-11-07T06:07:52.922Z,5.71
2022-11-07T06:10:20.584Z,5.73
2022-11-07T06:12:56.872Z,5.74
2022-11-07T06:15:24.456Z,5.73
2022-11-07T06:17:51.859Z,5.73
2022-11-07T06:20:19.202Z,5.63
2022-11-07T06:22:46.638Z,5.54
2022-11-07T06:25:14.562Z,5.64
2022-11-07T06:27:41.879Z,5.44
2022-11-07T06:30:09.972Z,5.37
2022-11-07T06:32:44.283Z,5.22
2022-11-07T06:35:12.964Z,5.33
2022-11-07T06:37:40.377Z,5.13
2022-11-07T06:40:08.631Z,5.05
2022-11-07T06:43:26.472Z,5.06
2022-11-07T06:45:54.353Z,5.16
2022-11-07T06:48:21.714Z,5.23
2022-11-07T06:50:56.803Z,5.25
2022-11-07T06:53:24.324Z,5.35
2022-11-07T06:55:52.092Z,5.38
2022-11-07T06:58:19.672Z,5.44
2022-11-07T07:00:47.176Z,5.60
2022-11-07T07:03:26.525Z,5.71
2022-11-07T07:05:54.186Z,5.81
2022-11-07T07:08:21.638Z,5.90
2022-11-07T07:10:55.268Z,6.07
2022-11-07T07:13:22.972Z,6.02
2022-11-07T07:15:57.500Z,5.92
2022-11-07T07:18:31.863Z,5.89
2022-11-07T07:21:14.937Z,5.90
2022-11-07T07:23:42.515Z,6.03
2022-11-07T07:26:20.912Z,6.17
2022-11-07T07:28:49.226Z,6.37
2022-11-07T07:31:22.588Z,6.55
2022-11-07T07:33:50.346Z,6.78
2022-11-07T07:36:24.838Z,6.93
2022-11-07T07:38:53.194Z,7.14
2022-11-07T07:41:21.167Z,7.10
2022-11-07T07:43:48.667Z,7.30
2022-11-07T07:46:20.226Z,7.56
2022-11-07T07:49:13.290Z,7.84
2022-11-07T07:51:40.801Z,7.93
2022-11-07T07:54:08.195Z,8.35
2022-11-07T07:56:35.534Z,8.73
2022-11-07T07:59:07.945Z,8.57
2022-11-07T08:01:35.539Z,9.36
2022-11-07T08:04:03.315Z,9.82
2022-11-07T08:06:32.543Z,10.40
2022-11-07T08:09:00.029Z,10.61
2022-11-07T08:11:29.461Z,11.90
2022-11-07T08:14:01.061Z,12.23
2022-11-07T08:16:29.340Z,13.00
2022-11-07T08:18:56.745Z,13.41
2022-11-07T08:21:24.516Z,11.80
2022-11-07T08:24:40.304Z,12.60
2022-11-07T08:27:44.929Z,12.07
2022-11-07T08:30:17.751Z,11.76
2022-11-07T08:32:45.826Z,11.27
2022-11-07T08:35:13.209Z,10.96
2022-11-07T08:37:40.902Z,10.87
2022-11-07T08:40:09.028Z,10.73
2022-11-07T08:42:36.638Z,10.81
2022-11-07T08:45:04.451Z,10.99
2022-11-07T08:47:33.446Z,10.98
2022-11-07T08:51:04.074Z,11.02
2022-11-07T08:53:32.353Z,10.87
2022-11-07T08:56:08.321Z,10.69
2022-11-07T08:58:40.437Z,10.48
2022-11-07T09:01:09.606Z,10.42
2022-11-07T09:03:50.341Z,10.32
2022-11-07T09:06:20.541Z,10.84
2022-11-07T09:08:48.005Z,11.14
2022-11-07T09:11:18.796Z,11.18
2022-11-07T09:13:56.149Z,11.23
2022-11-07T09:16:23.824Z,11.26
2022-11-07T09:18:57.166Z,11.08
2022-11-07T09:21:24.714Z,11.03
2022-11-07T09:23:58.624Z,10.86
2022-11-07T09:26:26.399Z,10.92
2022-11-07T09:29:00.008Z,11.00
2022-11-07T09:31:29.953Z,11.46
2022-11-07T09:33:57.430Z,11.81
2022-11-07T09:36:30.669Z,12.01
2022-11-07T09:38:59.439Z,12.12
2022-11-07T09:41:52.910Z,12.43
2022-11-07T09:44:39.014Z,12.85
2022-11-07T09:47:17.232Z,12.82
2022-11-07T09:49:48.630Z,13.24
2022-11-07T09:52:23.512Z,13.50
2022-11-07T09:55:01.139Z,13.89
2022-11-07T09:57:33.604Z,13.47
2022-11-07T10:00:05.584Z,14.03
2022-11-07T10:02:38.113Z,14.74
2022-11-07T10:05:06.448Z,14.84
2022-11-07T10:07:57.410Z,14.59
2022-11-07T10:10:38.841Z,14.13
2022-11-07T10:13:20.683Z,13.92
2022-11-07T10:16:00.261Z,13.21
2022-11-07T10:19:33.569Z,12.98
2022-11-07T10:22:19.490Z,12.86
2022-11-07T10:25:16.653Z,12.71
2022-11-07T10:27:57.684Z,12.36
2022-11-07T10:30:25.130Z,12.20
2022-11-07T10:33:09.873Z,12.23
2022-11-07T10:35:53.415Z,12.27
2022-11-07T10:38:32.365Z,12.35
2022-11-07T10:41:03.188Z,12.48
2022-11-07T10:43:37.897Z,12.55
2022-11-07T10:46:20.877Z,12.45
2022-11-07T10:49:01.644Z,12.56
2022-11-07T10:51:40.604Z,12.94
2022-11-07T10:54:26.532Z,13.14
2022-11-07T10:57:16.703Z,13.29
2022-11-07T11:00:00.025Z,13.31
2022-11-07T11:02:31.434Z,13.19
2022-11-07T11:05:02.547Z,13.30
2022-11-07T11:07:41.063Z,13.29
2022-11-07T11:10:48.454Z,13.14
2022-11-07T11:13:30.687Z,13.53
2022-11-07T11:16:05.353Z,13.64
2022-11-07T11:18:33.547Z,13.61
2022-11-07T11:21:25.943Z,13.19
2022-11-07T11:23:59.089Z,13.02
2022-11-07T11:26:39.700Z,12.97
2022-11-07T11:29:29.842Z,13.23
2022-11-07T11:31:59.757Z,13.32
2022-11-07T11:35:05.972Z,13.37
2022-11-07T11:37:38.865Z,13.49
2022-11-07T11:40:23.114Z,13.90
2022-11-07T11:43:19.592Z,13.83
2022-11-07T11:46:12.598Z,13.45
2022-11-07T11:48:45.491Z,13.22
2022-11-07T11:51:45.730Z,13.23
2022-11-07T11:54:23.377Z,13.18
2022-11-07T11:57:16.520Z,13.25
2022-11-07T11:59:58.472Z,13.01
2022-11-07T12:02:53.213Z,13.07
2022-11-07T12:05:32.898Z,12.72
2022-11-07T12:08:25.161Z,12.59
2022-11-07T12:11:01.408Z,12.77
2022-11-07T12:14:11.967Z,12.58
2022-11-07T12:17:02.684Z,12.65
2022-11-07T12:19:44.623Z,12.39
2022-11-07T12:22:36.040Z,12.38
2022-11-07T12:25:07.310Z,12.28
2022-11-07T12:27:54.409Z,12.01
2022-11-07T12:30:32.846Z,12.33
2022-11-07T12:33:18.405Z,12.06
2022-11-07T12:36:15.972Z,12.18
2022-11-07T12:38:53.283Z,12.16
2022-11-07T12:41:26.742Z,12.33
2022-11-07T12:44:06.905Z,12.45
2022-11-07T12:47:00.067Z,12.42
2022-11-07T12:49:51.751Z,12.76
2022-11-07T12:52:45.072Z,12.68
2022-11-07T12:55:37.121Z,12.27
2022-11-07T12:58:12.941Z,12.32
2022-11-07T13:00:41.595Z,12.11
2022-11-07T13:03:12.231Z,12.02
2022-11-07T13:05:42.963Z,11.92
2022-11-07T13:08:43.171Z,11.99
2022-11-07T13:11:35.415Z,12.09
2022-11-07T13:14:24.291Z,11.99
2022-11-07T13:17:34.384Z,12.25
2022-11-07T13:20:24.422Z,11.98
2022-11-07T13:22:54.071Z,11.93
2022-11-07T13:25:29.171Z,11.99
2022-11-07T13:27:56.484Z,11.96
2022-11-07T13:30:32.485Z,12.12
2022-11-07T13:33:02.377Z,12.21
2022-11-07T13:35:38.821Z,12.03
2022-11-07T13:38:16.713Z,12.01
2022-11-07T13:40:52.444Z,12.12
2022-11-07T13:43:29.076Z,12.14
2022-11-07T13:46:04.173Z,12.05
2022-11-07T13:48:49.227Z,11.98
2022-11-07T13:51:42.416Z,12.05
2022-11-07T13:54:27.890Z,12.15
2022-11-07T13:57:06.822Z,12.19
2022-11-07T13:59:57.559Z,12.17
2022-11-07T14:02:30.526Z,12.16
2022-11-07T14:05:21.061Z,12.06
2022-11-07T14:07:55.737Z,12.04
2022-11-07T14:10:34.062Z,12.14
2022-11-07T14:13:14.534Z,12.05
2022-11-07T14:15:58.774Z,11.98
2022-11-07T14:18:30.078Z,11.94
2022-11-07T14:20:59.753Z,11.86
2022-11-07T14:23:35.300Z,11.73
2022-11-07T14:26:16.027Z,11.69
2022-11-07T14:28:44.806Z,11.63
2022-11-07T14:31:27.688Z,11.60
2022-11-07T14:34:01.245Z,11.69
2022-11-07T14:36:29.687Z,11.61
2022-11-07T14:39:05.148Z,11.67
2022-11-07T14:41:38.752Z,11.72
2022-11-07T14:44:08.209Z,11.60
2022-11-07T14:46:37.072Z,11.66
2022-11-07T14:49:04.717Z,11.68
2022-11-07T14:51:32.888Z,11.71
2022-11-07T14:54:05.636Z,11.50
2022-11-07T14:56:38.506Z,11.45
2022-11-07T14:59:13.797Z,11.44
2022-11-07T15:01:59.387Z,11.43
2022-11-07T15:04:38.321Z,11.35
2022-11-07T15:07:19.645Z,11.44
2022-11-07T15:09:47.197Z,11.33
2022-11-07T15:12:22.354Z,11.57
2022-11-07T15:15:16.136Z,11.44
2022-11-07T15:17:56.532Z,11.34
2022-11-07T15:20:25.065Z,11.41
2022-11-07T15:22:53.490Z,11.44
2022-11-07T15:25:56.039Z,11.40
2022-11-07T15:28:43.873Z,11.53
2022-11-07T15:31:24.577Z,11.78
2022-11-07T15:33:59.439Z,11.82
2022-11-07T15:36:26.904Z,11.73
2022-11-07T15:38:55.994Z,11.65
2022-11-07T15:41:23.337Z,11.65
2022-11-07T15:43:50.722Z,11.63
2022-11-07T15:46:39.186Z,11.66
2022-11-07T15:49:12.310Z,11.64
2022-11-07T15:51:39.855Z,11.58
2022-11-07T15:54:13.359Z,11.62
2022-11-07T15:56:41.790Z,11.48
2022-11-07T15:59:19.936Z,11.40
2022-11-07T16:01:48.317Z,11.50
2022-11-07T16:04:16.532Z,11.49
2022-11-07T16:06:46.246Z,11.41
2022-11-07T16:09:17.767Z,11.34
2022-11-07T16:11:46.576Z,11.42
2022-11-07T16:14:42.905Z,11.47
2022-11-07T16:17:07.273Z,11.21
2022-11-07T16:19:34.687Z,11.24
2022-11-07T16:22:02.127Z,11.28
2022-11-07T16:24:29.577Z,11.30
2022-11-07T16:26:57.178Z,11.23
2022-11-07T16:29:24.941Z,11.19
2022-11-07T16:31:52.697Z,11.16
2022-11-07T16:34:20.148Z,11.13
2022-11-07T16:36:48.850Z,11.16
2022-11-07T16:39:21.779Z,11.21
2022-11-07T16:41:50.549Z,11.28
2022-11-07T16:44:25.631Z,11.24
2022-11-07T16:46:56.539Z,11.16
2022-11-07T16:49:33.813Z,11.18
2022-11-07T16:52:02.164Z,11.25
2022-11-07T16:54:29.589Z,11.19
2022-11-07T16:56:57.404Z,11.23
2022-11-07T16:59:24.807Z,11.17
2022-11-07T17:01:53.709Z,11.19
2022-11-07T17:04:21.186Z,11.25
2022-11-07T17:06:48.938Z,11.19
2022-11-07T17:09:20.495Z,11.28
2022-11-07T17:11:48.029Z,11.21
2022-11-07T17:14:19.620Z,11.16
2022-11-07T17:16:49.245Z,11.05
2022-11-07T17:19:17.371Z,11.16
2022-11-07T17:21:48.443Z,11.08
2022-11-07T17:24:16.805Z,10.92
2022-11-07T17:26:44.179Z,10.81
2022-11-07T17:29:13.606Z,10.83
2022-11-07T17:31:42.068Z,10.77
2022-11-07T17:34:10.389Z,10.78
2022-11-07T17:36:47.670Z,10.76
2022-11-07T17:39:16.984Z,10.86
2022-11-07T17:41:46.945Z,10.79
2022-11-07T17:44:15.788Z,10.81
2022-11-07T17:46:46.882Z,10.79
2022-11-07T17:49:16.952Z,10.66
2022-11-07T17:51:45.086Z,10.70
2022-11-07T17:54:14.834Z,10.74
2022-11-07T17:56:43.672Z,10.55
2022-11-07T17:59:14.370Z,10.55
2022-11-07T18:01:42.531Z,10.59
2022-11-07T18:04:13.476Z,10.54
2022-11-07T18:06:43.087Z,10.41
2022-11-07T18:09:15.733Z,10.34
2022-11-07T18:11:43.952Z,10.45
2022-11-07T18:14:13.749Z,10.45
2022-11-07T18:16:41.278Z,10.48
2022-11-07T18:19:10.835Z,10.51
2022-11-07T18:21:38.760Z,10.62
2022-11-07T18:24:06.741Z,10.73
2022-11-07T18:26:35.376Z,10.73
2022-11-07T18:29:06.543Z,10.83
2022-11-07T18:31:38.666Z,10.73
2022-11-07T18:34:10.790Z,10.74
2022-11-07T18:36:39.971Z,10.66
2022-11-07T18:39:14.845Z,10.70
2022-11-07T18:41:43.291Z,10.86
2022-11-07T18:44:12.591Z,10.82
2022-11-07T18:46:40.933Z,10.72
2022-11-07T18:49:08.677Z,10.69
2022-11-07T18:51:36.123Z,10.75
2022-11-07T18:54:05.025Z,10.69
2022-11-07T18:56:34.049Z,10.63
2022-11-07T18:59:02.891Z,10.61
2022-11-07T19:01:33.481Z,10.43
2022-11-07T19:04:05.764Z,10.36
2022-11-07T19:06:34.829Z,10.23
2022-11-07T19:09:04.524Z,10.29
2022-11-07T19:11:34.218Z,10.33
2022-11-07T19:14:03.365Z,10.37
2022-11-07T19:16:31.559Z,10.37
2022-11-07T19:19:00.179Z,10.33
2022-11-07T19:21:28.022Z,10.35
2022-11-07T19:23:55.710Z,10.42
2022-11-07T19:26:24.887Z,10.26
2022-11-07T19:28:54.199Z,10.42
2022-11-07T19:31:21.891Z,10.31
2022-11-07T19:33:50.633Z,10.25
2022-11-07T19:36:23.615Z,10.27
2022-11-07T19:38:51.623Z,10.15
2022-11-07T19:41:20.107Z,10.12
2022-11-07T19:43:51.106Z,10.02
2022-11-07T19:46:22.577Z,9.84
2022-11-07T19:48:50.880Z,9.73
2022-11-07T19:51:22.446Z,9.67
2022-11-07T19:54:02.460Z,9.78
2022-11-07T19:56:32.491Z,9.72
2022-11-07T19:59:01.610Z,9.76
2022-11-07T20:01:31.886Z,9.85
2022-11-07T20:04:00.572Z,9.79
2022-11-07T20:06:33.220Z,10.10
2022-11-07T20:09:01.512Z,10.06
2022-11-07T20:11:29.281Z,10.11
2022-11-07T20:14:03.303Z,10.14
2022-11-07T20:16:38.654Z,10.24
2022-11-07T20:19:06.516Z,10.15
2022-11-07T20:21:34.633Z,10.18
2022-11-07T20:24:06.141Z,10.21
2022-11-07T20:26:38.020Z,10.28
2022-11-07T20:29:06.830Z,10.11
2022-11-07T20:31:37.244Z,10.23
2022-11-07T20:34:07.846Z,10.20
2022-11-07T20:36:36.079Z,10.16
2022-11-07T20:39:04.371Z,10.09
2022-11-07T20:41:32.121Z,9.98
2022-11-07T20:44:03.632Z,9.88
2022-11-07T20:46:34.962Z,9.87
2022-11-07T20:49:06.138Z,9.79
2022-11-07T20:51:34.751Z,9.88
2022-11-07T20:54:02.959Z,9.88
2022-11-07T20:56:30.632Z,9.82
2022-11-07T20:58:59.007Z,9.78
2022-11-07T21:01:35.973Z,9.69
2022-11-07T21:04:04.535Z,9.68
2022-11-07T21:06:32.700Z,9.61
2022-11-07T21:09:00.918Z,9.81
2022-11-07T21:11:30.601Z,9.78
2022-11-07T21:13:58.411Z,9.77
2022-11-07T21:16:26.942Z,9.77
2022-11-07T21:18:55.871Z,9.71
2022-11-07T21:21:27.630Z,9.74
2022-11-07T21:23:58.272Z,9.76
2022-11-07T21:26:39.347Z,9.83
2022-11-07T21:29:09.090Z,9.76
2022-11-07T21:31:51.141Z,9.88
2022-11-07T21:34:23.639Z,9.96
2022-11-07T21:36:52.146Z,9.81
2022-11-07T21:39:19.704Z,9.68
2022-11-07T21:41:47.226Z,9.58
2022-11-07T21:44:16.093Z,9.56
2022-11-07T21:46:43.758Z,9.50
2022-11-07T21:49:13.473Z,9.47
2022-11-07T21:51:44.607Z,9.54
2022-11-07T21:54:12.340Z,9.55
2022-11-07T21:56:40.082Z,9.69
2022-11-07T21:59:09.694Z,9.70
2022-11-07T22:01:38.570Z,9.95
2022-11-07T22:04:10.686Z,10.06
2022-11-07T22:06:41.667Z,10.07
2022-11-07T22:09:10.768Z,9.97
2022-11-07T22:11:39.228Z,9.98
2022-11-07T22:14:09.942Z,9.86
2022-11-07T22:16:38.259Z,9.73
2022-11-07T22:19:11.177Z,9.68
2022-11-07T22:21:40.269Z,9.62
2022-11-07T22:24:08.509Z,9.61
2022-11-07T22:26:36.595Z,9.67
2022-11-07T22:29:04.213Z,9.53
2022-11-07T22:31:32.507Z,9.41
2022-11-07T22:34:01.194Z,9.43
2022-11-07T22:36:29.952Z,9.42
2022-11-07T22:38:58.313Z,9.56
2022-11-07T22:41:27.434Z,9.77
2022-11-07T22:43:55.983Z,9.82
2022-11-07T22:46:26.051Z,9.82
2022-11-07T22:48:55.470Z,9.82
2022-11-07T22:51:27.652Z,9.73
2022-11-07T22:53:58.775Z,9.76
2022-11-07T22:56:26.589Z,9.63
2022-11-07T22:58:54.101Z,9.71
2022-11-07T23:01:27.072Z,9.76
2022-11-07T23:03:54.820Z,9.64
2022-11-07T23:06:23.522Z,9.69
2022-11-07T23:08:51.764Z,9.81
2022-11-07T23:11:45.400Z,9.88
2022-11-07T23:14:13.077Z,9.81
2022-11-07T23:16:45.021Z,9.77
2022-11-07T23:19:14.839Z,9.67
2022-11-07T23:21:43.003Z,9.92
2022-11-07T23:24:11.508Z,9.95
2022-11-07T23:26:39.502Z,9.99
2022-11-07T23:29:19.417Z,10.20
2022-11-07T23:31:49.176Z,10.19
2022-11-07T23:34:18.031Z,10.18
2022-11-07T23:36:45.828Z,10.20
2022-11-07T23:39:15.921Z,10.26
2022-11-07T23:41:43.829Z,10.28
2022-11-07T23:44:12.881Z,10.34
2022-11-07T23:47:00.386Z,10.33
2022-11-07T23:49:46.606Z,10.43
2022-11-07T23:52:14.425Z,10.48
2022-11-07T23:55:00.406Z,10.43
2022-11-07T23:57:27.910Z,10.43
